sensor_id;sensor_type;location;lat;lon;timestamp;P1;durP1;ratioP1;P2;durP2;ratioP2
67902;SDS011;54708;43.612;1.568;2023-06-04T00:02:21;9.95;;;4.45;;
67902;SDS011;54708;43.612;1.568;2023-06-04T00:04:46;10.23;;;4.30;;
67902;SDS011;54708;43.612;1.568;2023-06-04T00:07:12;8.60;;;4.78;;
67902;SDS011;54708;43.612;1.568;2023-06-04T00:09:37;5.15;;;4.57;;
67902;SDS011;54708;43.612;1.568;2023-06-04T00:12:03;5.60;;;5.00;;
67902;SDS011;54708;43.612;1.568;2023-06-04T00:14:28;6.75;;;4.28;;
67902;SDS011;54708;43.612;1.568;2023-06-04T00:16:54;7.68;;;4.95;;
67902;SDS011;54708;43.612;1.568;2023-06-04T00:19:19;8.05;;;4.25;;
67902;SDS011;54708;43.612;1.568;2023-06-04T00:21:45;7.28;;;4.65;;
67902;SDS011;54708;43.612;1.568;2023-06-04T00:24:10;9.48;;;5.20;;
67902;SDS011;54708;43.612;1.568;2023-06-04T00:26:37;6.32;;;5.35;;
67902;SDS011;54708;43.612;1.568;2023-06-04T00:29:02;7.85;;;4.80;;
67902;SDS011;54708;43.612;1.568;2023-06-04T00:31:28;10.00;;;5.55;;
67902;SDS011;54708;43.612;1.568;2023-06-04T00:33:53;6.43;;;4.25;;
67902;SDS011;54708;43.612;1.568;2023-06-04T00:36:19;6.13;;;4.18;;
67902;SDS011;54708;43.612;1.568;2023-06-04T00:38:44;5.88;;;4.10;;
67902;SDS011;54708;43.612;1.568;2023-06-04T00:41:09;6.28;;;4.40;;
67902;SDS011;54708;43.612;1.568;2023-06-04T00:43:35;5.93;;;4.35;;
67902;SDS011;54708;43.612;1.568;2023-06-04T00:46:01;5.90;;;4.72;;
67902;SDS011;54708;43.612;1.568;2023-06-04T00:48:28;5.35;;;4.85;;
67902;SDS011;54708;43.612;1.568;2023-06-04T00:50:55;5.07;;;4.40;;
67902;SDS011;54708;43.612;1.568;2023-06-04T00:53:21;5.97;;;5.10;;
67902;SDS011;54708;43.612;1.568;2023-06-04T00:55:48;6.53;;;5.10;;
67902;SDS011;54708;43.612;1.568;2023-06-04T00:58:13;5.38;;;4.53;;
67902;SDS011;54708;43.612;1.568;2023-06-04T01:00:40;6.22;;;5.60;;
67902;SDS011;54708;43.612;1.568;2023-06-04T01:03:09;7.15;;;5.05;;
67902;SDS011;54708;43.612;1.568;2023-06-04T01:05:37;6.80;;;4.45;;
67902;SDS011;54708;43.612;1.568;2023-06-04T01:08:09;9.30;;;5.40;;
67902;SDS011;54708;43.612;1.568;2023-06-04T01:10:35;5.38;;;4.50;;
67902;SDS011;54708;43.612;1.568;2023-06-04T01:13:01;6.18;;;4.95;;
67902;SDS011;54708;43.612;1.568;2023-06-04T01:15:26;8.77;;;4.45;;
67902;SDS011;54708;43.612;1.568;2023-06-04T01:17:53;6.00;;;4.72;;
67902;SDS011;54708;43.612;1.568;2023-06-04T01:25:40;8.55;;;5.38;;
67902;SDS011;54708;43.612;1.568;2023-06-04T01:28:09;14.30;;;6.22;;
67902;SDS011;54708;43.612;1.568;2023-06-04T01:30:42;6.18;;;5.10;;
67902;SDS011;54708;43.612;1.568;2023-06-04T01:35:36;5.93;;;4.68;;
67902;SDS011;54708;43.612;1.568;2023-06-04T01:38:02;5.10;;;4.28;;
67902;SDS011;54708;43.612;1.568;2023-06-04T01:40:27;7.85;;;5.07;;
67902;SDS011;54708;43.612;1.568;2023-06-04T01:42:53;5.80;;;4.80;;
67902;SDS011;54708;43.612;1.568;2023-06-04T01:45:20;9.38;;;5.15;;
67902;SDS011;54708;43.612;1.568;2023-06-04T01:47:49;6.32;;;4.85;;
67902;SDS011;54708;43.612;1.568;2023-06-04T01:50:14;7.32;;;5.13;;
67902;SDS011;54708;43.612;1.568;2023-06-04T01:52:40;4.10;;;3.70;;
67902;SDS011;54708;43.612;1.568;2023-06-04T01:55:06;6.45;;;4.45;;
67902;SDS011;54708;43.612;1.568;2023-06-04T01:57:36;4.80;;;4.15;;
67902;SDS011;54708;43.612;1.568;2023-06-04T02:00:02;6.10;;;4.82;;
67902;SDS011;54708;43.612;1.568;2023-06-04T02:02:29;5.63;;;3.85;;
67902;SDS011;54708;43.612;1.568;2023-06-04T02:04:54;4.47;;;4.07;;
67902;SDS011;54708;43.612;1.568;2023-06-04T02:07:20;8.38;;;4.72;;
67902;SDS011;54708;43.612;1.568;2023-06-04T02:09:48;6.22;;;4.32;;
67902;SDS011;54708;43.612;1.568;2023-06-04T02:12:14;6.38;;;4.80;;
67902;SDS011;54708;43.612;1.568;2023-06-04T02:14:39;9.55;;;4.68;;
67902;SDS011;54708;43.612;1.568;2023-06-04T02:17:07;4.82;;;4.03;;
67902;SDS011;54708;43.612;1.568;2023-06-04T02:19:37;6.32;;;4.15;;
67902;SDS011;54708;43.612;1.568;2023-06-04T02:22:09;4.75;;;3.78;;
67902;SDS011;54708;43.612;1.568;2023-06-04T02:24:38;7.57;;;4.25;;
67902;SDS011;54708;43.612;1.568;2023-06-04T02:27:04;7.55;;;4.80;;
67902;SDS011;54708;43.612;1.568;2023-06-04T02:29:30;6.68;;;5.07;;
67902;SDS011;54708;43.612;1.568;2023-06-04T02:31:56;5.45;;;4.20;;
67902;SDS011;54708;43.612;1.568;2023-06-04T02:34:21;4.72;;;4.10;;
67902;SDS011;54708;43.612;1.568;2023-06-04T02:36:46;7.57;;;4.60;;
67902;SDS011;54708;43.612;1.568;2023-06-04T02:39:13;5.07;;;4.03;;
67902;SDS011;54708;43.612;1.568;2023-06-04T02:41:39;8.63;;;4.72;;
67902;SDS011;54708;43.612;1.568;2023-06-04T02:44:04;6.85;;;4.57;;
67902;SDS011;54708;43.612;1.568;2023-06-04T02:46:29;9.77;;;4.28;;
67902;SDS011;54708;43.612;1.568;2023-06-04T02:48:55;4.32;;;3.90;;
67902;SDS011;54708;43.612;1.568;2023-06-04T02:51:20;4.65;;;3.80;;
67902;SDS011;54708;43.612;1.568;2023-06-04T02:53:45;6.35;;;4.55;;
67902;SDS011;54708;43.612;1.568;2023-06-04T02:56:11;6.35;;;4.60;;
67902;SDS011;54708;43.612;1.568;2023-06-04T02:58:37;4.55;;;3.75;;
67902;SDS011;54708;43.612;1.568;2023-06-04T03:01:05;6.00;;;4.80;;
67902;SDS011;54708;43.612;1.568;2023-06-04T03:03:31;5.70;;;5.00;;
67902;SDS011;54708;43.612;1.568;2023-06-04T03:05:58;5.47;;;4.15;;
67902;SDS011;54708;43.612;1.568;2023-06-04T03:08:24;6.53;;;4.00;;
67902;SDS011;54708;43.612;1.568;2023-06-04T03:10:50;4.20;;;3.80;;
67902;SDS011;54708;43.612;1.568;2023-06-04T03:13:15;8.80;;;4.40;;
67902;SDS011;54708;43.612;1.568;2023-06-04T03:15:41;4.07;;;3.67;;
67902;SDS011;54708;43.612;1.568;2023-06-04T03:18:06;4.88;;;4.38;;
67902;SDS011;54708;43.612;1.568;2023-06-04T03:20:32;6.30;;;3.80;;
67902;SDS011;54708;43.612;1.568;2023-06-04T03:23:03;4.85;;;3.70;;
67902;SDS011;54708;43.612;1.568;2023-06-04T03:25:28;7.90;;;3.95;;
67902;SDS011;54708;43.612;1.568;2023-06-04T03:27:53;7.00;;;4.20;;
67902;SDS011;54708;43.612;1.568;2023-06-04T03:30:19;5.40;;;4.57;;
67902;SDS011;54708;43.612;1.568;2023-06-04T03:32:44;7.35;;;3.92;;
67902;SDS011;54708;43.612;1.568;2023-06-04T03:35:10;7.43;;;4.57;;
67902;SDS011;54708;43.612;1.568;2023-06-04T03:37:35;7.65;;;4.90;;
67902;SDS011;54708;43.612;1.568;2023-06-04T03:40:01;5.40;;;4.25;;
67902;SDS011;54708;43.612;1.568;2023-06-04T03:42:31;7.10;;;4.15;;
67902;SDS011;54708;43.612;1.568;2023-06-04T03:44:56;6.93;;;4.68;;
67902;SDS011;54708;43.612;1.568;2023-06-04T03:47:23;7.18;;;5.13;;
67902;SDS011;54708;43.612;1.568;2023-06-04T03:49:48;7.03;;;4.53;;
67902;SDS011;54708;43.612;1.568;2023-06-04T03:52:13;5.20;;;4.25;;
67902;SDS011;54708;43.612;1.568;2023-06-04T03:54:39;7.90;;;5.05;;
67902;SDS011;54708;43.612;1.568;2023-06-04T03:57:04;7.90;;;4.78;;
67902;SDS011;54708;43.612;1.568;2023-06-04T03:59:30;5.00;;;4.10;;
67902;SDS011;54708;43.612;1.568;2023-06-04T04:01:55;7.07;;;4.10;;
67902;SDS011;54708;43.612;1.568;2023-06-04T04:04:21;4.72;;;4.18;;
67902;SDS011;54708;43.612;1.568;2023-06-04T04:06:47;5.75;;;4.20;;
67902;SDS011;54708;43.612;1.568;2023-06-04T04:09:13;6.55;;;4.28;;
67902;SDS011;54708;43.612;1.568;2023-06-04T04:11:38;6.55;;;4.70;;
67902;SDS011;54708;43.612;1.568;2023-06-04T04:14:03;15.77;;;6.22;;
67902;SDS011;54708;43.612;1.568;2023-06-04T04:16:29;5.80;;;4.30;;
67902;SDS011;54708;43.612;1.568;2023-06-04T04:18:54;8.98;;;5.18;;
67902;SDS011;54708;43.612;1.568;2023-06-04T04:21:20;7.85;;;4.45;;
67902;SDS011;54708;43.612;1.568;2023-06-04T04:23:46;8.70;;;5.00;;
67902;SDS011;54708;43.612;1.568;2023-06-04T04:26:11;6.70;;;4.75;;
67902;SDS011;54708;43.612;1.568;2023-06-04T04:28:42;5.15;;;4.38;;
67902;SDS011;54708;43.612;1.568;2023-06-04T04:31:08;9.05;;;4.63;;
67902;SDS011;54708;43.612;1.568;2023-06-04T04:33:35;5.63;;;4.43;;
67902;SDS011;54708;43.612;1.568;2023-06-04T04:36:05;8.98;;;4.38;;
67902;SDS011;54708;43.612;1.568;2023-06-04T04:38:33;6.78;;;5.13;;
67902;SDS011;54708;43.612;1.568;2023-06-04T04:41:00;11.23;;;4.93;;
67902;SDS011;54708;43.612;1.568;2023-06-04T04:43:32;8.00;;;4.82;;
67902;SDS011;54708;43.612;1.568;2023-06-04T04:45:58;4.88;;;4.32;;
67902;SDS011;54708;43.612;1.568;2023-06-04T04:48:24;5.30;;;4.63;;
67902;SDS011;54708;43.612;1.568;2023-06-04T04:50:50;8.40;;;4.43;;
67902;SDS011;54708;43.612;1.568;2023-06-04T04:53:16;5.60;;;4.80;;
67902;SDS011;54708;43.612;1.568;2023-06-04T04:55:41;7.35;;;5.05;;
67902;SDS011;54708;43.612;1.568;2023-06-04T04:58:06;8.32;;;4.80;;
67902;SDS011;54708;43.612;1.568;2023-06-04T05:00:32;6.45;;;4.60;;
67902;SDS011;54708;43.612;1.568;2023-06-04T05:02:57;11.35;;;5.22;;
67902;SDS011;54708;43.612;1.568;2023-06-04T05:05:23;5.20;;;4.43;;
67902;SDS011;54708;43.612;1.568;2023-06-04T05:07:48;6.13;;;5.05;;
67902;SDS011;54708;43.612;1.568;2023-06-04T05:10:13;5.00;;;4.47;;
67902;SDS011;54708;43.612;1.568;2023-06-04T05:12:39;6.43;;;4.60;;
67902;SDS011;54708;43.612;1.568;2023-06-04T05:15:05;9.35;;;5.03;;
67902;SDS011;54708;43.612;1.568;2023-06-04T05:17:31;7.65;;;4.78;;
67902;SDS011;54708;43.612;1.568;2023-06-04T05:19:56;7.63;;;5.07;;
67902;SDS011;54708;43.612;1.568;2023-06-04T05:22:29;4.82;;;4.35;;
67902;SDS011;54708;43.612;1.568;2023-06-04T05:24:54;6.82;;;5.20;;
67902;SDS011;54708;43.612;1.568;2023-06-04T05:27:20;5.88;;;4.75;;
67902;SDS011;54708;43.612;1.568;2023-06-04T05:29:47;8.30;;;4.85;;
67902;SDS011;54708;43.612;1.568;2023-06-04T05:32:12;7.43;;;5.10;;
67902;SDS011;54708;43.612;1.568;2023-06-04T05:34:38;8.57;;;4.90;;
67902;SDS011;54708;43.612;1.568;2023-06-04T05:37:04;6.63;;;4.82;;
67902;SDS011;54708;43.612;1.568;2023-06-04T05:39:33;12.48;;;5.95;;
67902;SDS011;54708;43.612;1.568;2023-06-04T05:41:58;19.08;;;5.38;;
67902;SDS011;54708;43.612;1.568;2023-06-04T05:44:24;7.30;;;5.13;;
67902;SDS011;54708;43.612;1.568;2023-06-04T05:46:49;8.10;;;4.72;;
67902;SDS011;54708;43.612;1.568;2023-06-04T05:49:15;6.45;;;5.13;;
67902;SDS011;54708;43.612;1.568;2023-06-04T05:51:41;4.82;;;4.28;;
67902;SDS011;54708;43.612;1.568;2023-06-04T05:54:07;9.13;;;5.43;;
67902;SDS011;54708;43.612;1.568;2023-06-04T05:56:32;13.68;;;4.72;;
67902;SDS011;54708;43.612;1.568;2023-06-04T05:58:58;6.93;;;5.20;;
67902;SDS011;54708;43.612;1.568;2023-06-04T06:01:23;9.32;;;5.57;;
67902;SDS011;54708;43.612;1.568;2023-06-04T06:03:49;7.03;;;4.82;;
67902;SDS011;54708;43.612;1.568;2023-06-04T06:06:14;11.13;;;4.82;;
67902;SDS011;54708;43.612;1.568;2023-06-04T06:08:40;5.78;;;4.95;;
67902;SDS011;54708;43.612;1.568;2023-06-04T06:11:05;10.50;;;6.18;;
67902;SDS011;54708;43.612;1.568;2023-06-04T06:13:32;9.00;;;5.38;;
67902;SDS011;54708;43.612;1.568;2023-06-04T06:15:57;6.53;;;4.57;;
67902;SDS011;54708;43.612;1.568;2023-06-04T06:18:22;6.65;;;4.85;;
67902;SDS011;54708;43.612;1.568;2023-06-04T06:20:48;6.47;;;4.63;;
67902;SDS011;54708;43.612;1.568;2023-06-04T06:23:13;10.13;;;4.72;;
67902;SDS011;54708;43.612;1.568;2023-06-04T06:25:39;5.55;;;4.90;;
67902;SDS011;54708;43.612;1.568;2023-06-04T06:28:10;10.40;;;5.05;;
67902;SDS011;54708;43.612;1.568;2023-06-04T06:30:36;11.68;;;4.80;;
67902;SDS011;54708;43.612;1.568;2023-06-04T06:33:01;9.70;;;5.65;;
67902;SDS011;54708;43.612;1.568;2023-06-04T06:35:27;6.07;;;5.47;;
67902;SDS011;54708;43.612;1.568;2023-06-04T06:37:52;7.55;;;5.10;;
67902;SDS011;54708;43.612;1.568;2023-06-04T06:40:18;8.07;;;5.35;;
67902;SDS011;54708;43.612;1.568;2023-06-04T06:42:47;8.45;;;4.95;;
67902;SDS011;54708;43.612;1.568;2023-06-04T06:45:18;8.55;;;5.60;;
67902;SDS011;54708;43.612;1.568;2023-06-04T06:47:44;6.97;;;4.90;;
67902;SDS011;54708;43.612;1.568;2023-06-04T06:50:10;8.65;;;5.03;;
67902;SDS011;54708;43.612;1.568;2023-06-04T06:52:36;8.63;;;5.35;;
67902;SDS011;54708;43.612;1.568;2023-06-04T06:55:01;7.32;;;5.03;;
67902;SDS011;54708;43.612;1.568;2023-06-04T06:57:28;6.78;;;4.90;;
67902;SDS011;54708;43.612;1.568;2023-06-04T06:59:53;5.47;;;4.97;;
67902;SDS011;54708;43.612;1.568;2023-06-04T07:02:19;9.35;;;5.78;;
67902;SDS011;54708;43.612;1.568;2023-06-04T07:04:44;7.93;;;5.68;;
67902;SDS011;54708;43.612;1.568;2023-06-04T07:07:10;6.43;;;5.28;;
67902;SDS011;54708;43.612;1.568;2023-06-04T07:09:35;6.72;;;4.90;;
67902;SDS011;54708;43.612;1.568;2023-06-04T07:12:01;6.07;;;5.00;;
67902;SDS011;54708;43.612;1.568;2023-06-04T07:14:26;9.50;;;4.78;;
67902;SDS011;54708;43.612;1.568;2023-06-04T07:16:51;6.15;;;4.75;;
67902;SDS011;54708;43.612;1.568;2023-06-04T07:19:17;7.03;;;6.32;;
67902;SDS011;54708;43.612;1.568;2023-06-04T07:21:42;9.77;;;5.00;;
67902;SDS011;54708;43.612;1.568;2023-06-04T07:24:08;7.07;;;4.97;;
67902;SDS011;54708;43.612;1.568;2023-06-04T07:26:33;6.57;;;4.65;;
67902;SDS011;54708;43.612;1.568;2023-06-04T07:28:58;6.50;;;4.80;;
67902;SDS011;54708;43.612;1.568;2023-06-04T07:31:24;10.23;;;5.47;;
67902;SDS011;54708;43.612;1.568;2023-06-04T07:33:49;5.95;;;4.78;;
67902;SDS011;54708;43.612;1.568;2023-06-04T07:36:15;6.30;;;4.82;;
67902;SDS011;54708;43.612;1.568;2023-06-04T07:38:41;6.80;;;4.38;;
67902;SDS011;54708;43.612;1.568;2023-06-04T07:41:07;5.30;;;4.75;;
67902;SDS011;54708;43.612;1.568;2023-06-04T07:43:33;5.90;;;4.63;;
67902;SDS011;54708;43.612;1.568;2023-06-04T07:46:00;5.82;;;4.50;;
67902;SDS011;54708;43.612;1.568;2023-06-04T07:48:26;7.55;;;4.53;;
67902;SDS011;54708;43.612;1.568;2023-06-04T07:50:59;6.38;;;4.28;;
67902;SDS011;54708;43.612;1.568;2023-06-04T07:53:25;5.30;;;4.10;;
67902;SDS011;54708;43.612;1.568;2023-06-04T07:55:51;5.30;;;4.63;;
67902;SDS011;54708;43.612;1.568;2023-06-04T07:58:17;11.88;;;8.43;;
67902;SDS011;54708;43.612;1.568;2023-06-04T08:00:42;4.57;;;4.13;;
67902;SDS011;54708;43.612;1.568;2023-06-04T08:03:08;4.72;;;4.00;;
67902;SDS011;54708;43.612;1.568;2023-06-04T08:05:34;6.93;;;4.20;;
67902;SDS011;54708;43.612;1.568;2023-06-04T08:08:00;4.28;;;3.88;;
67902;SDS011;54708;43.612;1.568;2023-06-04T08:10:25;7.57;;;5.07;;
67902;SDS011;54708;43.612;1.568;2023-06-04T08:12:51;5.18;;;4.40;;
67902;SDS011;54708;43.612;1.568;2023-06-04T08:15:16;6.28;;;4.43;;
67902;SDS011;54708;43.612;1.568;2023-06-04T08:17:41;4.75;;;4.07;;
67902;SDS011;54708;43.612;1.568;2023-06-04T08:20:07;5.15;;;4.65;;
67902;SDS011;54708;43.612;1.568;2023-06-04T08:22:34;11.45;;;4.78;;
67902;SDS011;54708;43.612;1.568;2023-06-04T08:24:59;6.78;;;3.90;;
67902;SDS011;54708;43.612;1.568;2023-06-04T08:27:25;3.92;;;3.63;;
67902;SDS011;54708;43.612;1.568;2023-06-04T08:29:50;7.15;;;4.45;;
67902;SDS011;54708;43.612;1.568;2023-06-04T08:32:17;4.28;;;3.78;;
67902;SDS011;54708;43.612;1.568;2023-06-04T08:34:42;4.63;;;4.05;;
67902;SDS011;54708;43.612;1.568;2023-06-04T08:37:08;5.60;;;3.58;;
67902;SDS011;54708;43.612;1.568;2023-06-04T08:39:33;11.10;;;4.75;;
67902;SDS011;54708;43.612;1.568;2023-06-04T08:42:00;6.10;;;4.45;;
67902;SDS011;54708;43.612;1.568;2023-06-04T08:44:29;4.47;;;3.72;;
67902;SDS011;54708;43.612;1.568;2023-06-04T08:46:57;4.93;;;4.05;;
67902;SDS011;54708;43.612;1.568;2023-06-04T08:49:28;3.90;;;3.53;;
67902;SDS011;54708;43.612;1.568;2023-06-04T08:51:56;4.35;;;3.72;;
67902;SDS011;54708;43.612;1.568;2023-06-04T08:54:22;6.28;;;4.43;;
67902;SDS011;54708;43.612;1.568;2023-06-04T08:56:47;4.78;;;4.22;;
67902;SDS011;54708;43.612;1.568;2023-06-04T08:59:13;5.32;;;3.70;;
67902;SDS011;54708;43.612;1.568;2023-06-04T09:01:39;7.75;;;3.85;;
67902;SDS011;54708;43.612;1.568;2023-06-04T09:04:09;6.13;;;3.88;;
67902;SDS011;54708;43.612;1.568;2023-06-04T09:06:35;7.13;;;3.95;;
67902;SDS011;54708;43.612;1.568;2023-06-04T09:09:03;4.28;;;3.60;;
67902;SDS011;54708;43.612;1.568;2023-06-04T09:11:35;4.32;;;3.95;;
67902;SDS011;54708;43.612;1.568;2023-06-04T09:14:02;4.47;;;3.45;;
67902;SDS011;54708;43.612;1.568;2023-06-04T09:16:29;4.80;;;3.60;;
67902;SDS011;54708;43.612;1.568;2023-06-04T09:19:01;4.57;;;3.45;;
67902;SDS011;54708;43.612;1.568;2023-06-04T09:21:27;3.40;;;3.10;;
67902;SDS011;54708;43.612;1.568;2023-06-04T09:23:53;4.90;;;4.00;;
67902;SDS011;54708;43.612;1.568;2023-06-04T09:26:18;4.57;;;4.00;;
67902;SDS011;54708;43.612;1.568;2023-06-04T09:28:44;6.57;;;3.90;;
67902;SDS011;54708;43.612;1.568;2023-06-04T09:31:14;4.88;;;3.65;;
67902;SDS011;54708;43.612;1.568;2023-06-04T09:33:43;4.18;;;3.55;;
67902;SDS011;54708;43.612;1.568;2023-06-04T09:36:09;5.25;;;3.97;;
67902;SDS011;54708;43.612;1.568;2023-06-04T09:38:35;6.57;;;3.22;;
67902;SDS011;54708;43.612;1.568;2023-06-04T09:41:01;4.97;;;3.22;;
67902;SDS011;54708;43.612;1.568;2023-06-04T09:43:29;5.28;;;3.13;;
67902;SDS011;54708;43.612;1.568;2023-06-04T09:45:55;5.03;;;3.67;;
67902;SDS011;54708;43.612;1.568;2023-06-04T09:48:21;8.40;;;3.63;;
67902;SDS011;54708;43.612;1.568;2023-06-04T09:50:47;6.25;;;3.42;;
67902;SDS011;54708;43.612;1.568;2023-06-04T09:53:13;5.55;;;3.05;;
67902;SDS011;54708;43.612;1.568;2023-06-04T09:55:57;4.38;;;3.08;;
67902;SDS011;54708;43.612;1.568;2023-06-04T09:58:24;7.80;;;3.95;;
67902;SDS011;54708;43.612;1.568;2023-06-04T10:00:50;8.18;;;4.55;;
67902;SDS011;54708;43.612;1.568;2023-06-04T10:03:17;5.68;;;4.80;;
67902;SDS011;54708;43.612;1.568;2023-06-04T10:05:48;4.80;;;3.92;;
67902;SDS011;54708;43.612;1.568;2023-06-04T10:08:13;6.55;;;4.03;;
67902;SDS011;54708;43.612;1.568;2023-06-04T10:10:42;4.60;;;3.92;;
67902;SDS011;54708;43.612;1.568;2023-06-04T10:13:09;6.30;;;3.70;;
67902;SDS011;54708;43.612;1.568;2023-06-04T10:15:41;8.10;;;3.28;;
67902;SDS011;54708;43.612;1.568;2023-06-04T10:18:06;4.65;;;3.47;;
67902;SDS011;54708;43.612;1.568;2023-06-04T10:20:31;3.85;;;3.42;;
67902;SDS011;54708;43.612;1.568;2023-06-04T10:22:58;2.92;;;2.72;;
67902;SDS011;54708;43.612;1.568;2023-06-04T10:25:23;6.72;;;3.03;;
67902;SDS011;54708;43.612;1.568;2023-06-04T10:27:51;7.35;;;2.80;;
67902;SDS011;54708;43.612;1.568;2023-06-04T10:30:17;5.97;;;2.60;;
67902;SDS011;54708;43.612;1.568;2023-06-04T10:32:42;3.97;;;2.97;;
67902;SDS011;54708;43.612;1.568;2023-06-04T10:35:08;3.28;;;2.85;;
67902;SDS011;54708;43.612;1.568;2023-06-04T10:37:33;6.40;;;3.38;;
67902;SDS011;54708;43.612;1.568;2023-06-04T10:39:59;2.78;;;2.58;;
67902;SDS011;54708;43.612;1.568;2023-06-04T10:42:24;5.40;;;3.10;;
67902;SDS011;54708;43.612;1.568;2023-06-04T10:44:51;12.63;;;3.03;;
67902;SDS011;54708;43.612;1.568;2023-06-04T10:47:35;5.13;;;3.28;;
67902;SDS011;54708;43.612;1.568;2023-06-04T10:50:11;3.40;;;2.72;;
67902;SDS011;54708;43.612;1.568;2023-06-04T10:52:37;3.05;;;2.60;;
67902;SDS011;54708;43.612;1.568;2023-06-04T10:55:16;4.45;;;2.92;;
67902;SDS011;54708;43.612;1.568;2023-06-04T10:57:50;5.80;;;3.25;;
67902;SDS011;54708;43.612;1.568;2023-06-04T11:00:29;3.33;;;3.03;;
67902;SDS011;54708;43.612;1.568;2023-06-04T11:03:02;4.32;;;2.70;;
67902;SDS011;54708;43.612;1.568;2023-06-04T11:05:40;4.50;;;2.78;;
67902;SDS011;54708;43.612;1.568;2023-06-04T11:08:07;3.47;;;2.53;;
67902;SDS011;54708;43.612;1.568;2023-06-04T11:10:43;3.95;;;2.85;;
67902;SDS011;54708;43.612;1.568;2023-06-04T11:13:10;5.32;;;2.90;;
67902;SDS011;54708;43.612;1.568;2023-06-04T11:18:05;4.10;;;2.95;;
67902;SDS011;54708;43.612;1.568;2023-06-04T11:20:31;4.47;;;2.75;;
67902;SDS011;54708;43.612;1.568;2023-06-04T11:22:56;2.95;;;2.42;;
67902;SDS011;54708;43.612;1.568;2023-06-04T11:25:24;3.83;;;2.40;;
67902;SDS011;54708;43.612;1.568;2023-06-04T11:27:54;2.70;;;2.50;;
67902;SDS011;54708;43.612;1.568;2023-06-04T11:30:20;4.78;;;2.65;;
67902;SDS011;54708;43.612;1.568;2023-06-04T11:32:46;4.10;;;2.60;;
67902;SDS011;54708;43.612;1.568;2023-06-04T11:35:11;4.47;;;2.13;;
67902;SDS011;54708;43.612;1.568;2023-06-04T11:37:37;3.47;;;2.63;;
67902;SDS011;54708;43.612;1.568;2023-06-04T11:40:24;5.82;;;3.15;;
67902;SDS011;54708;43.612;1.568;2023-06-04T11:42:49;4.93;;;2.70;;
67902;SDS011;54708;43.612;1.568;2023-06-04T11:45:16;5.70;;;3.17;;
67902;SDS011;54708;43.612;1.568;2023-06-04T11:47:49;2.78;;;2.58;;
67902;SDS011;54708;43.612;1.568;2023-06-04T11:50:16;3.38;;;2.67;;
67902;SDS011;54708;43.612;1.568;2023-06-04T11:52:42;3.92;;;2.30;;
67902;SDS011;54708;43.612;1.568;2023-06-04T11:55:08;6.32;;;5.55;;
67902;SDS011;54708;43.612;1.568;2023-06-04T11:57:35;4.13;;;3.33;;
67902;SDS011;54708;43.612;1.568;2023-06-04T12:00:01;4.43;;;3.08;;
67902;SDS011;54708;43.612;1.568;2023-06-04T12:02:27;3.22;;;2.38;;
67902;SDS011;54708;43.612;1.568;2023-06-04T12:04:52;3.10;;;2.35;;
67902;SDS011;54708;43.612;1.568;2023-06-04T12:07:21;3.53;;;2.58;;
67902;SDS011;54708;43.612;1.568;2023-06-04T12:09:50;3.13;;;2.55;;
67902;SDS011;54708;43.612;1.568;2023-06-04T12:12:20;5.68;;;2.35;;
67902;SDS011;54708;43.612;1.568;2023-06-04T12:14:47;4.13;;;2.30;;
67902;SDS011;54708;43.612;1.568;2023-06-04T12:17:12;3.15;;;2.72;;
67902;SDS011;54708;43.612;1.568;2023-06-04T12:19:47;6.10;;;3.13;;
67902;SDS011;54708;43.612;1.568;2023-06-04T12:22:13;5.20;;;2.83;;
67902;SDS011;54708;43.612;1.568;2023-06-04T12:25:00;2.42;;;2.10;;
67902;SDS011;54708;43.612;1.568;2023-06-04T12:27:27;4.38;;;2.90;;
67902;SDS011;54708;43.612;1.568;2023-06-04T12:32:25;7.50;;;6.63;;
67902;SDS011;54708;43.612;1.568;2023-06-04T12:34:51;3.97;;;3.42;;
67902;SDS011;54708;43.612;1.568;2023-06-04T12:37:16;2.22;;;2.00;;
67902;SDS011;54708;43.612;1.568;2023-06-04T12:39:42;3.55;;;2.47;;
67902;SDS011;54708;43.612;1.568;2023-06-04T12:42:08;2.72;;;2.13;;
67902;SDS011;54708;43.612;1.568;2023-06-04T12:44:40;2.75;;;2.22;;
67902;SDS011;54708;43.612;1.568;2023-06-04T12:47:06;8.25;;;2.72;;
67902;SDS011;54708;43.612;1.568;2023-06-04T12:49:32;2.80;;;2.30;;
67902;SDS011;54708;43.612;1.568;2023-06-04T12:51:57;4.03;;;2.60;;
67902;SDS011;54708;43.612;1.568;2023-06-04T12:54:23;5.10;;;2.70;;
67902;SDS011;54708;43.612;1.568;2023-06-04T12:56:48;4.28;;;2.60;;
67902;SDS011;54708;43.612;1.568;2023-06-04T12:59:14;6.13;;;2.35;;
67902;SDS011;54708;43.612;1.568;2023-06-04T13:01:40;12.65;;;3.03;;
67902;SDS011;54708;43.612;1.568;2023-06-04T13:04:05;12.15;;;3.28;;
67902;SDS011;54708;43.612;1.568;2023-06-04T13:06:31;3.05;;;2.38;;
67902;SDS011;54708;43.612;1.568;2023-06-04T13:08:56;9.23;;;2.83;;
67902;SDS011;54708;43.612;1.568;2023-06-04T13:11:22;2.55;;;2.05;;
67902;SDS011;54708;43.612;1.568;2023-06-04T13:13:47;3.78;;;2.42;;
67902;SDS011;54708;43.612;1.568;2023-06-04T13:16:13;2.40;;;2.08;;
67902;SDS011;54708;43.612;1.568;2023-06-04T13:18:38;4.75;;;2.22;;
67902;SDS011;54708;43.612;1.568;2023-06-04T13:21:04;3.22;;;1.75;;
67902;SDS011;54708;43.612;1.568;2023-06-04T13:23:29;3.33;;;2.47;;
67902;SDS011;54708;43.612;1.568;2023-06-04T13:25:55;3.60;;;2.20;;
67902;SDS011;54708;43.612;1.568;2023-06-04T13:28:20;2.85;;;1.88;;
67902;SDS011;54708;43.612;1.568;2023-06-04T13:30:45;2.75;;;1.92;;
67902;SDS011;54708;43.612;1.568;2023-06-04T13:33:11;3.70;;;2.17;;
67902;SDS011;54708;43.612;1.568;2023-06-04T13:35:37;3.67;;;2.10;;
67902;SDS011;54708;43.612;1.568;2023-06-04T13:38:03;3.13;;;2.60;;
67902;SDS011;54708;43.612;1.568;2023-06-04T13:40:29;3.53;;;2.22;;
67902;SDS011;54708;43.612;1.568;2023-06-04T13:42:55;6.15;;;2.15;;
67902;SDS011;54708;43.612;1.568;2023-06-04T13:45:20;2.28;;;1.95;;
67902;SDS011;54708;43.612;1.568;2023-06-04T13:47:49;3.67;;;2.25;;
67902;SDS011;54708;43.612;1.568;2023-06-04T13:50:14;2.83;;;1.67;;
67902;SDS011;54708;43.612;1.568;2023-06-04T13:52:40;5.07;;;2.20;;
67902;SDS011;54708;43.612;1.568;2023-06-04T13:55:05;1.83;;;1.70;;
67902;SDS011;54708;43.612;1.568;2023-06-04T13:57:31;1.55;;;1.45;;
67902;SDS011;54708;43.612;1.568;2023-06-04T13:59:56;1.55;;;1.35;;
67902;SDS011;54708;43.612;1.568;2023-06-04T14:02:22;2.15;;;1.95;;
67902;SDS011;54708;43.612;1.568;2023-06-04T14:04:49;3.80;;;2.40;;
67902;SDS011;54708;43.612;1.568;2023-06-04T14:07:15;2.50;;;1.73;;
67902;SDS011;54708;43.612;1.568;2023-06-04T14:09:40;1.83;;;1.73;;
67902;SDS011;54708;43.612;1.568;2023-06-04T14:12:07;2.67;;;1.50;;
67902;SDS011;54708;43.612;1.568;2023-06-04T14:14:33;3.25;;;2.00;;
67902;SDS011;54708;43.612;1.568;2023-06-04T14:17:01;2.97;;;1.70;;
67902;SDS011;54708;43.612;1.568;2023-06-04T14:19:28;2.08;;;1.80;;
67902;SDS011;54708;43.612;1.568;2023-06-04T14:21:53;2.28;;;1.65;;
67902;SDS011;54708;43.612;1.568;2023-06-04T14:24:18;2.63;;;1.67;;
67902;SDS011;54708;43.612;1.568;2023-06-04T14:26:44;2.03;;;1.73;;
67902;SDS011;54708;43.612;1.568;2023-06-04T14:29:09;2.83;;;1.95;;
67902;SDS011;54708;43.612;1.568;2023-06-04T14:31:35;2.08;;;1.90;;
67902;SDS011;54708;43.612;1.568;2023-06-04T14:34:00;1.75;;;1.65;;
67902;SDS011;54708;43.612;1.568;2023-06-04T14:36:26;2.78;;;1.80;;
67902;SDS011;54708;43.612;1.568;2023-06-04T14:38:51;3.50;;;1.90;;
67902;SDS011;54708;43.612;1.568;2023-06-04T14:41:16;1.92;;;1.80;;
67902;SDS011;54708;43.612;1.568;2023-06-04T14:43:42;2.60;;;1.67;;
67902;SDS011;54708;43.612;1.568;2023-06-04T14:46:07;3.78;;;1.67;;
67902;SDS011;54708;43.612;1.568;2023-06-04T14:48:32;4.32;;;2.13;;
67902;SDS011;54708;43.612;1.568;2023-06-04T14:50:58;2.83;;;1.77;;
67902;SDS011;54708;43.612;1.568;2023-06-04T14:53:23;2.20;;;2.00;;
67902;SDS011;54708;43.612;1.568;2023-06-04T14:55:49;3.17;;;2.00;;
67902;SDS011;54708;43.612;1.568;2023-06-04T14:58:14;1.80;;;1.70;;